Terminal Aerodrome Forecast
Issued by NWS

Home | Current Version | Previous Version | Graphics & Text | Print | Product List | Glossary On
Versions: 1 2 3 4 5 6 7 8 9 10 11 12 13 14 15 16 17
000
FTUS43 KMPX 170900 AAA
TAFRNH
TAF AMD
KRNH 170902Z 1709/1806 30008KT P6SM -SN OVC020
      TEMPO 1709/1711 SCT020
     FM172000 33004KT P6SM SCT020 BKN050
     FM180300 36002KT P6SM BKN100=

USA.gov is the U.S. government's official web portal to all federal, state and local government web resources and services.